Time;durP1;ratioP1;P1;durP2;ratioP2;P2;SDS_P1;SDS_P2;PMS_P1;PMS_P2;Temp;Humidity;BMP_temperature;BMP_pressure;BME280_temperature;BME280_humidity;BME280_pressure;Samples;Min_cycle;Max_cycle;Signal;HPM_P1;HPM_P2
2021/01/21 00:01:50;;;;;;;16.57;15.07;;;3.80;99.90;;;;;;5060650;28;20710;-87
2021/01/21 00:04:18;;;;;;;18.80;16.80;;;3.80;99.90;;;;;;5063598;28;20688;-88
2021/01/21 00:06:44;;;;;;;38.37;25.17;;;3.90;99.90;;;;;;5065261;28;21237;-87
2021/01/21 00:09:12;;;;;;;22.17;19.63;;;4.00;99.90;;;;;;5063134;28;20740;-87
2021/01/21 00:11:38;;;;;;;20.57;18.40;;;4.20;99.90;;;;;;5064003;28;20640;-88
2021/01/21 00:14:05;;;;;;;21.00;18.97;;;4.30;99.90;;;;;;5063485;28;20626;-89
2021/01/21 00:16:32;;;;;;;24.07;21.77;;;4.30;99.90;;;;;;5063008;28;20630;-89
2021/01/21 00:18:58;;;;;;;20.63;18.83;;;4.20;99.90;;;;;;5061803;28;20850;-89
2021/01/21 00:21:24;;;;;;;19.00;17.20;;;4.20;99.90;;;;;;5061781;28;21069;-89
2021/01/21 00:23:51;;;;;;;19.83;18.10;;;4.20;99.90;;;;;;5044423;28;21147;-88
2021/01/21 00:26:17;;;;;;;19.70;18.00;;;4.10;99.90;;;;;;5043136;28;20683;-89
2021/01/21 00:28:44;;;;;;;19.40;17.77;;;4.10;99.90;;;;;;5063876;28;20642;-88
2021/01/21 00:31:10;;;;;;;19.10;17.50;;;4.20;99.90;;;;;;5059428;28;20681;-88
2021/01/21 00:33:37;;;;;;;18.80;16.93;;;4.30;99.90;;;;;;5059743;28;21095;-89
2021/01/21 00:36:04;;;;;;;21.33;19.43;;;4.30;99.90;;;;;;5062063;28;20642;-88
2021/01/21 00:38:30;;;;;;;19.73;17.93;;;4.20;99.90;;;;;;5065094;28;20644;-88
2021/01/21 00:40:56;;;;;;;20.90;19.07;;;4.00;99.90;;;;;;5064154;28;21200;-88
2021/01/21 00:43:23;;;;;;;20.00;18.30;;;3.90;99.90;;;;;;5063955;28;20638;-88
2021/01/21 00:45:51;;;;;;;23.50;21.40;;;3.90;99.90;;;;;;5062713;28;20668;-88
2021/01/21 00:48:17;;;;;;;19.60;17.97;;;3.90;99.90;;;;;;5046039;28;20692;-86
2021/01/21 00:50:44;;;;;;;23.97;22.03;;;3.90;99.90;;;;;;5062650;28;20836;-87
2021/01/21 00:53:10;;;;;;;22.37;20.37;;;3.80;99.90;;;;;;5063504;28;20630;-87
2021/01/21 00:55:37;;;;;;;20.27;18.53;;;3.90;99.90;;;;;;5042066;28;20634;-86
2021/01/21 00:58:03;;;;;;;18.47;16.77;;;4.00;99.90;;;;;;5062502;28;20709;-87
2021/01/21 01:00:30;;;;;;;15.27;13.73;;;4.00;99.90;;;;;;5049935;28;20715;-87
2021/01/21 01:02:56;;;;;;;14.83;13.50;;;3.90;99.90;;;;;;5061671;28;20703;-87
2021/01/21 01:05:22;;;;;;;11.67;10.67;;;3.90;99.90;;;;;;5063356;28;20661;-88
2021/01/21 01:07:50;;;;;;;9.93;9.07;;;3.90;99.90;;;;;;5064095;28;20629;-88
2021/01/21 01:10:16;;;;;;;10.77;9.67;;;3.90;99.90;;;;;;5064374;28;20771;-88
2021/01/21 01:12:42;;;;;;;11.73;8.53;;;3.90;99.90;;;;;;5060295;28;20697;-87
2021/01/21 01:15:10;;;;;;;12.80;11.10;;;4.00;99.90;;;;;;5063592;28;20617;-88
2021/01/21 01:17:36;;;;;;;12.03;10.83;;;4.00;99.90;;;;;;5064452;28;20637;-87
2021/01/21 01:20:04;;;;;;;11.73;10.63;;;3.90;99.90;;;;;;5061567;28;21297;-87
2021/01/21 01:22:30;;;;;;;11.93;10.83;;;4.00;99.90;;;;;;5064266;28;20625;-87
2021/01/21 01:24:57;;;;;;;8.83;7.93;;;4.10;99.90;;;;;;5063126;28;20629;-88
2021/01/21 01:27:24;;;;;;;10.30;9.30;;;4.00;99.90;;;;;;5063202;28;20630;-88
2021/01/21 01:29:50;;;;;;;14.80;7.77;;;4.00;99.90;;;;;;5062630;28;21017;-87
2021/01/21 01:32:16;;;;;;;8.60;7.47;;;4.00;99.90;;;;;;5060029;28;20629;-87
2021/01/21 01:34:43;;;;;;;8.83;7.90;;;3.90;99.90;;;;;;5044649;28;20633;-88
2021/01/21 01:37:09;;;;;;;13.20;10.53;;;4.00;99.90;;;;;;5045418;28;20640;-88
2021/01/21 01:39:35;;;;;;;8.50;7.70;;;4.10;99.90;;;;;;5061219;28;20652;-88
2021/01/21 01:42:09;;;;;;;10.80;9.80;;;4.00;99.90;;;;;;5062820;28;21061;-89
2021/01/21 01:44:36;;;;;;;10.77;9.70;;;4.20;99.90;;;;;;5063493;28;20633;-88
2021/01/21 01:47:03;;;;;;;10.40;8.40;;;4.30;99.90;;;;;;5061796;28;21024;-88
2021/01/21 01:49:30;;;;;;;9.03;7.70;;;4.30;99.90;;;;;;5067075;28;21250;-88
2021/01/21 01:51:56;;;;;;;10.27;8.60;;;4.30;99.90;;;;;;5050000;28;21293;-88
2021/01/21 01:54:22;;;;;;;10.37;8.47;;;4.50;99.90;;;;;;5067455;28;21093;-88
2021/01/21 01:56:48;;;;;;;8.77;7.97;;;4.50;99.90;;;;;;5063428;28;20635;-88
2021/01/21 01:59:17;;;;;;;9.50;8.60;;;4.60;99.90;;;;;;5061840;28;20634;-88
2021/01/21 02:01:43;;;;;;;11.80;9.40;;;4.60;99.90;;;;;;5062913;28;20661;-88
2021/01/21 02:04:10;;;;;;;11.23;10.13;;;4.70;99.90;;;;;;5065755;28;21268;-88
2021/01/21 02:06:37;;;;;;;10.33;9.23;;;4.80;99.90;;;;;;5065215;28;21030;-87
2021/01/21 02:09:04;;;;;;;10.67;9.57;;;4.70;99.90;;;;;;5064332;28;21001;-87
2021/01/21 02:11:45;;;;;;;9.13;8.27;;;4.70;99.90;;;;;;5064948;28;20653;-87
2021/01/21 02:14:17;;;;;;;10.17;8.57;;;4.70;99.90;;;;;;5063685;28;20617;-87
2021/01/21 02:16:55;;;;;;;10.03;8.40;;;4.80;99.90;;;;;;5067167;28;20625;-87
2021/01/21 02:19:50;;;;;;;10.60;9.50;;;4.80;99.90;;;;;;5066721;28;20624;-87
2021/01/21 02:22:35;;;;;;;8.53;7.67;;;4.60;99.90;;;;;;5062459;28;20641;-87
2021/01/21 02:25:14;;;;;;;9.40;8.33;;;4.60;99.90;;;;;;5046408;28;20616;-86
2021/01/21 02:28:26;;;;;;;8.47;7.30;;;4.60;99.90;;;;;;5066516;28;20620;-86
2021/01/21 02:31:03;;;;;;;10.30;9.13;;;4.60;99.90;;;;;;5062516;28;20708;-88
2021/01/21 02:33:53;;;;;;;9.00;8.10;;;4.60;99.90;;;;;;5063138;28;20590;-88
2021/01/21 02:36:24;;;;;;;8.80;7.93;;;4.60;99.90;;;;;;5068475;28;20613;-88
2021/01/21 02:38:53;;;;;;;9.70;8.70;;;4.60;99.90;;;;;;5069683;28;20621;-88
2021/01/21 02:41:20;;;;;;;8.00;7.20;;;4.60;99.90;;;;;;5064395;28;20646;-88
2021/01/21 02:43:51;;;;;;;9.53;8.63;;;4.80;99.90;;;;;;5051050;28;20619;-89
2021/01/21 02:46:20;;;;;;;10.53;7.83;;;4.90;99.90;;;;;;5044615;28;20652;-89
2021/01/21 02:48:48;;;;;;;7.03;6.33;;;4.80;99.90;;;;;;5062694;28;20633;-88
2021/01/21 02:51:22;;;;;;;6.90;6.20;;;4.90;99.90;;;;;;5048072;28;21194;-87
2021/01/21 02:53:56;;;;;;;6.80;5.40;;;5.00;99.90;;;;;;5063776;28;20974;-88
2021/01/21 02:56:26;;;;;;;6.63;5.93;;;5.00;99.90;;;;;;5066751;28;20750;-89
2021/01/21 02:58:55;;;;;;;7.90;4.80;;;5.00;99.90;;;;;;5062897;28;21240;-86
2021/01/21 03:01:21;;;;;;;6.80;5.37;;;4.90;99.90;;;;;;5063846;28;20657;-86
2021/01/21 03:03:49;;;;;;;5.80;5.30;;;5.00;99.90;;;;;;5061777;28;20661;-86
2021/01/21 03:06:18;;;;;;;5.90;4.60;;;5.00;99.90;;;;;;5062988;28;20687;-86
2021/01/21 03:08:45;;;;;;;5.60;4.80;;;5.10;99.90;;;;;;5064388;28;20615;-86
2021/01/21 03:11:13;;;;;;;5.23;4.50;;;5.20;99.90;;;;;;5061044;28;21203;-86
2021/01/21 03:13:40;;;;;;;6.63;5.53;;;5.30;99.90;;;;;;5062379;28;20625;-86
2021/01/21 03:16:07;;;;;;;5.40;4.03;;;5.30;99.90;;;;;;5063815;28;20627;-86
2021/01/21 03:18:33;;;;;;;4.37;4.03;;;5.30;99.90;;;;;;5064978;28;20627;-86
2021/01/21 03:21:01;;;;;;;5.23;4.40;;;5.50;99.90;;;;;;5060427;28;21001;-87
2021/01/21 03:23:28;;;;;;;6.63;5.60;;;5.30;99.90;;;;;;5063256;28;20839;-87
2021/01/21 03:25:54;;;;;;;9.20;6.67;;;5.30;99.90;;;;;;5064014;28;20722;-87
2021/01/21 03:28:20;;;;;;;8.13;7.40;;;5.30;99.90;;;;;;5062905;28;20655;-87
2021/01/21 03:30:47;;;;;;;8.73;7.93;;;5.40;99.90;;;;;;5065897;28;20660;-87
2021/01/21 03:33:13;;;;;;;8.43;6.70;;;5.40;99.90;;;;;;5062805;28;20972;-87
2021/01/21 03:35:39;;;;;;;7.90;7.10;;;5.30;99.90;;;;;;5061793;28;21250;-88
2021/01/21 03:38:07;;;;;;;8.13;7.37;;;5.30;99.90;;;;;;5059659;28;21272;-87
2021/01/21 03:40:33;;;;;;;8.97;7.97;;;5.50;99.90;;;;;;5065003;28;20652;-87
2021/01/21 03:42:59;;;;;;;8.50;7.10;;;5.40;99.90;;;;;;5060156;28;20690;-87
2021/01/21 03:45:26;;;;;;;8.90;7.93;;;5.20;99.90;;;;;;5061791;28;20665;-87
2021/01/21 03:47:52;;;;;;;8.53;7.73;;;5.10;99.90;;;;;;5060536;28;21269;-87
2021/01/21 03:50:18;;;;;;;10.43;5.60;;;5.00;99.90;;;;;;5064921;28;21106;-87
2021/01/21 03:52:45;;;;;;;7.10;5.80;;;5.10;99.90;;;;;;5062596;28;20636;-87
2021/01/21 03:55:13;;;;;;;9.70;8.70;;;5.10;99.90;;;;;;5065251;28;20629;-87
2021/01/21 03:57:39;;;;;;;5.13;4.63;;;5.20;99.90;;;;;;5064311;28;20636;-89
2021/01/21 04:00:07;;;;;;;3.90;3.50;;;5.30;99.90;;;;;;5062169;28;20720;-89
2021/01/21 04:02:33;;;;;;;5.37;4.30;;;5.20;99.90;;;;;;5056083;28;20651;-89
2021/01/21 04:04:59;;;;;;;5.30;4.80;;;5.20;99.90;;;;;;5059567;28;20618;-88
2021/01/21 04:07:25;;;;;;;6.73;5.83;;;5.30;99.90;;;;;;5041340;28;20664;-87
2021/01/21 04:09:52;;;;;;;6.03;4.93;;;5.30;99.90;;;;;;5061814;28;20662;-89
2021/01/21 04:12:19;;;;;;;4.60;3.80;;;5.20;99.90;;;;;;5062606;28;20636;-88
2021/01/21 04:14:45;;;;;;;4.70;3.40;;;5.50;99.90;;;;;;5064180;28;20629;-87
2021/01/21 04:17:11;;;;;;;4.27;3.67;;;5.20;99.90;;;;;;5065829;28;20632;-88
2021/01/21 04:19:38;;;;;;;5.13;3.73;;;5.00;99.90;;;;;;5062393;28;20656;-88
2021/01/21 04:22:04;;;;;;;10.00;5.40;;;5.00;99.90;;;;;;5073136;28;20625;-87
2021/01/21 04:24:31;;;;;;;3.97;3.40;;;5.00;99.90;;;;;;5069556;28;20613;-89
2021/01/21 04:26:57;;;;;;;3.97;3.30;;;5.00;99.90;;;;;;5071048;28;20680;-89
2021/01/21 04:29:25;;;;;;;6.70;3.70;;;5.10;99.90;;;;;;5062189;28;20625;-89
2021/01/21 04:31:51;;;;;;;6.00;4.30;;;5.00;99.90;;;;;;5060824;28;20734;-89
2021/01/21 04:34:18;;;;;;;3.83;3.43;;;4.90;99.90;;;;;;5059181;28;20618;-89
2021/01/21 04:36:44;;;;;;;5.20;4.17;;;4.80;99.90;;;;;;5063216;28;20612;-89
2021/01/21 04:39:11;;;;;;;5.60;4.30;;;4.90;99.90;;;;;;5042656;28;20658;-89
2021/01/21 04:41:38;;;;;;;4.47;4.07;;;4.90;99.90;;;;;;5058602;28;20625;-89
2021/01/21 04:44:04;;;;;;;3.37;3.03;;;5.00;99.90;;;;;;5061509;28;20617;-89
2021/01/21 04:46:32;;;;;;;4.60;3.33;;;5.00;99.90;;;;;;5061395;28;20673;-89
2021/01/21 04:49:02;;;;;;;6.70;2.90;;;5.00;99.90;;;;;;5059780;28;20619;-89
2021/01/21 04:51:30;;;;;;;3.20;2.73;;;5.00;99.90;;;;;;5063349;28;20669;-88
2021/01/21 04:53:59;;;;;;;4.10;3.50;;;5.40;99.90;;;;;;5060790;28;21129;-89
2021/01/21 04:56:35;;;;;;;4.33;3.23;;;5.50;99.90;;;;;;5063615;28;20786;-89
2021/01/21 04:59:03;;;;;;;2.70;2.47;;;5.60;99.90;;;;;;5063609;28;20691;-89
2021/01/21 05:01:31;;;;;;;4.10;3.70;;;5.90;99.90;;;;;;5063101;28;20649;-89
2021/01/21 05:03:58;;;;;;;2.60;2.30;;;6.00;99.90;;;;;;5061482;28;20949;-90
2021/01/21 05:06:24;;;;;;;3.50;2.83;;;6.20;99.90;;;;;;5062100;28;20681;-89
2021/01/21 05:08:51;;;;;;;3.50;3.10;;;6.20;99.70;;;;;;5059444;28;21027;-89
2021/01/21 05:11:18;;;;;;;3.23;2.93;;;6.30;99.80;;;;;;5071264;28;20640;-89
2021/01/21 05:13:44;;;;;;;4.30;4.00;;;6.20;99.90;;;;;;5065514;28;20641;-89
2021/01/21 05:16:10;;;;;;;4.17;3.87;;;6.10;99.90;;;;;;5063336;28;20675;-89
2021/01/21 05:18:38;;;;;;;4.77;4.30;;;6.00;99.90;;;;;;5061575;28;20632;-90
2021/01/21 05:21:07;;;;;;;4.50;3.30;;;5.90;99.90;;;;;;5062972;28;20652;-89
2021/01/21 05:23:34;;;;;;;4.70;4.27;;;5.80;99.90;;;;;;5067028;28;20629;-89
2021/01/21 05:26:00;;;;;;;4.47;4.00;;;5.90;99.90;;;;;;5067821;28;20649;-89
2021/01/21 05:28:30;;;;;;;4.10;3.70;;;5.60;99.90;;;;;;5066373;28;20638;-89
2021/01/21 05:30:59;;;;;;;3.83;3.30;;;5.70;99.90;;;;;;5064327;28;20681;-89
2021/01/21 05:33:28;;;;;;;5.50;3.27;;;5.80;99.90;;;;;;5059871;28;20631;-89
2021/01/21 05:35:56;;;;;;;7.03;3.90;;;5.80;99.90;;;;;;5063147;28;20634;-89
2021/01/21 05:38:23;;;;;;;4.13;3.47;;;6.10;99.90;;;;;;5067433;28;20624;-89
2021/01/21 05:40:49;;;;;;;4.10;3.70;;;6.00;99.90;;;;;;5066068;28;21007;-89
2021/01/21 05:43:15;;;;;;;6.30;3.87;;;6.20;99.90;;;;;;5067940;28;20701;-89
2021/01/21 05:45:45;;;;;;;4.77;4.20;;;6.40;99.90;;;;;;5066254;28;20762;-89
2021/01/21 05:48:13;;;;;;;6.83;4.23;;;6.50;99.90;;;;;;5067589;28;20674;-89
2021/01/21 05:50:40;;;;;;;5.37;3.50;;;6.50;99.90;;;;;;5066792;28;20652;-89
2021/01/21 05:53:08;;;;;;;2.67;2.47;;;6.60;99.90;;;;;;5066716;28;20887;-89
2021/01/21 05:55:39;;;;;;;5.53;5.03;;;6.70;99.00;;;;;;5061604;28;20622;-89
2021/01/21 05:58:07;;;;;;;3.97;2.80;;;6.90;98.80;;;;;;5064896;28;20621;-89
2021/01/21 06:00:35;;;;;;;2.50;2.03;;;7.00;98.40;;;;;;5047266;28;20786;-89
2021/01/21 06:03:01;;;;;;;3.20;2.03;;;7.10;98.00;;;;;;5064656;28;21180;-88
2021/01/21 06:05:28;;;;;;;1.80;1.67;;;7.60;97.30;;;;;;5068489;28;20625;-90
2021/01/21 06:07:54;;;;;;;3.13;1.80;;;7.50;97.00;;;;;;5069109;28;20628;-89
2021/01/21 06:10:22;;;;;;;1.97;1.77;;;7.60;96.60;;;;;;5066407;28;20647;-89
2021/01/21 06:12:50;;;;;;;1.60;1.50;;;8.30;96.50;;;;;;5065717;28;20633;-89
2021/01/21 06:15:18;;;;;;;1.50;1.30;;;7.80;95.70;;;;;;5063466;28;20624;-89
2021/01/21 06:17:46;;;;;;;2.07;1.60;;;7.90;95.20;;;;;;5066150;28;20625;-89
2021/01/21 06:20:13;;;;;;;1.90;1.50;;;8.00;94.50;;;;;;5064657;28;20688;-90
2021/01/21 06:22:41;;;;;;;1.83;1.60;;;8.20;94.70;;;;;;5065882;28;20620;-89
2021/01/21 06:25:12;;;;;;;1.63;1.10;;;8.30;93.90;;;;;;5050470;28;20683;-89
2021/01/21 06:27:42;;;;;;;2.33;1.13;;;8.30;94.10;;;;;;5066051;28;20699;-89
2021/01/21 06:30:11;;;;;;;4.30;1.40;;;8.40;93.70;;;;;;5066287;28;20695;-90
2021/01/21 06:32:47;;;;;;;1.23;0.90;;;8.90;92.10;;;;;;5065062;28;20817;-89
2021/01/21 06:35:18;;;;;;;6.10;1.27;;;9.00;91.70;;;;;;5066276;28;20635;-88
2021/01/21 06:37:50;;;;;;;1.27;1.17;;;9.10;91.60;;;;;;5065926;28;20640;-90
2021/01/21 06:40:18;;;;;;;2.70;1.27;;;9.00;91.90;;;;;;5066580;28;20629;-90
2021/01/21 06:43:05;;;;;;;3.60;1.20;;;9.00;91.50;;;;;;5063259;28;20676;-92
2021/01/21 06:45:34;;;;;;;1.50;1.30;;;9.00;91.60;;;;;;5068482;28;20617;-89
2021/01/21 06:48:01;;;;;;;2.27;1.00;;;9.10;90.90;;;;;;5065674;28;20728;-89
2021/01/21 06:50:29;;;;;;;1.00;0.90;;;9.30;90.40;;;;;;5049669;28;20675;-89
2021/01/21 06:53:00;;;;;;;3.60;1.43;;;9.30;90.30;;;;;;5068461;28;20644;-90
2021/01/21 06:55:27;;;;;;;1.83;1.13;;;9.40;90.10;;;;;;5048546;28;20751;-90
2021/01/21 06:57:54;;;;;;;1.10;1.00;;;9.40;90.30;;;;;;5068678;28;20632;-90
2021/01/21 07:00:40;;;;;;;2.07;1.10;;;9.40;88.80;;;;;;5067560;28;20702;-89
2021/01/21 07:03:07;;;;;;;0.80;0.77;;;9.70;89.60;;;;;;5068428;28;20628;-89
2021/01/21 07:05:34;;;;;;;2.97;1.10;;;9.80;89.00;;;;;;5064080;28;20645;-90
2021/01/21 07:08:06;;;;;;;2.30;0.90;;;9.80;89.20;;;;;;5047784;28;20722;-89
2021/01/21 07:10:39;;;;;;;1.47;0.60;;;9.80;90.00;;;;;;5065874;28;20672;-90
2021/01/21 07:13:10;;;;;;;3.20;1.03;;;9.80;90.10;;;;;;5063814;28;20737;-90
2021/01/21 07:15:42;;;;;;;1.03;0.73;;;9.90;90.50;;;;;;5068762;28;20578;-90
2021/01/21 07:18:16;;;;;;;4.10;0.80;;;10.10;91.40;;;;;;5069593;28;20633;-89
2021/01/21 07:21:12;;;;;;;0.83;0.70;;;10.30;92.10;;;;;;5080973;28;20828;-89
2021/01/21 07:23:43;;;;;;;1.57;1.00;;;10.30;92.80;;;;;;5077133;28;20632;-90
2021/01/21 07:26:20;;;;;;;1.43;0.80;;;10.60;93.30;;;;;;5062458;28;20645;-90
2021/01/21 07:29:07;;;;;;;0.70;0.60;;;10.70;93.60;;;;;;5058488;28;20644;-90
2021/01/21 07:32:09;;;;;;;1.37;1.13;;;10.60;93.80;;;;;;5073225;28;20649;-90
2021/01/21 07:34:53;;;;;;;1.60;0.70;;;10.60;93.80;;;;;;5077131;28;20639;-91
2021/01/21 07:37:28;;;;;;;4.43;0.90;;;10.70;93.90;;;;;;5073982;28;20587;-91
2021/01/21 07:40:05;;;;;;;2.60;0.70;;;10.70;94.10;;;;;;5067564;28;20664;-89
2021/01/21 07:42:51;;;;;;;0.90;0.60;;;10.60;94.20;;;;;;5064207;28;20621;-89
2021/01/21 07:45:27;;;;;;;1.30;1.20;;;10.70;94.10;;;;;;5065412;28;20647;-89
2021/01/21 07:47:58;;;;;;;0.70;0.40;;;10.70;93.90;;;;;;5065235;28;20617;-89
2021/01/21 07:50:35;;;;;;;1.23;0.80;;;10.70;93.90;;;;;;5065627;28;20660;-89
2021/01/21 07:53:26;;;;;;;1.10;1.00;;;10.70;93.80;;;;;;5064680;28;20665;-89
2021/01/21 07:55:55;;;;;;;0.80;0.50;;;10.60;94.10;;;;;;5061539;28;20625;-89
2021/01/21 07:58:30;;;;;;;1.23;0.93;;;10.70;94.00;;;;;;5064470;28;20626;-89
2021/01/21 08:00:58;;;;;;;1.37;0.80;;;10.90;94.00;;;;;;5062999;28;20648;-90
2021/01/21 08:03:46;;;;;;;0.73;0.70;;;10.60;94.10;;;;;;5063998;28;20672;-89
2021/01/21 08:06:15;;;;;;;2.50;0.70;;;10.70;94.10;;;;;;5063305;28;21182;-89
2021/01/21 08:08:43;;;;;;;1.23;0.93;;;10.60;94.10;;;;;;5043395;28;20629;-89
2021/01/21 08:11:13;;;;;;;1.40;1.30;;;10.70;93.90;;;;;;5041475;28;21209;-89
2021/01/21 08:13:39;;;;;;;0.90;0.80;;;10.80;94.10;;;;;;5060646;28;20960;-90
2021/01/21 08:16:12;;;;;;;1.10;0.90;;;10.90;93.90;;;;;;5061645;28;20712;-90
2021/01/21 08:18:38;;;;;;;0.80;0.60;;;10.90;94.00;;;;;;5061630;28;20678;-91
2021/01/21 08:21:25;;;;;;;1.87;0.90;;;11.10;93.70;;;;;;5062188;28;21218;-90
2021/01/21 08:23:53;;;;;;;2.90;0.90;;;11.10;93.90;;;;;;5063291;28;20620;-89
2021/01/21 08:26:19;;;;;;;1.33;0.80;;;11.20;94.20;;;;;;5065744;28;21086;-89
2021/01/21 08:28:46;;;;;;;1.80;0.57;;;11.40;94.20;;;;;;5071389;28;20636;-91
2021/01/21 08:31:14;;;;;;;3.50;0.50;;;11.60;94.30;;;;;;5063791;28;20660;-91
2021/01/21 08:33:41;;;;;;;2.10;0.87;;;11.60;94.50;;;;;;5066215;28;20636;-89
2021/01/21 08:36:11;;;;;;;0.90;0.70;;;11.60;94.70;;;;;;5061055;28;20621;-88
2021/01/21 08:38:42;;;;;;;28.13;2.07;;;11.60;95.10;;;;;;5065300;28;21191;-89
2021/01/21 08:41:11;;;;;;;0.90;0.70;;;11.50;95.40;;;;;;5043086;28;20674;-89
2021/01/21 08:43:39;;;;;;;1.00;0.60;;;11.50;95.60;;;;;;5066705;28;20620;-90
2021/01/21 08:46:13;;;;;;;0.90;0.40;;;11.50;95.70;;;;;;5063719;28;20661;-90
2021/01/21 08:48:39;;;;;;;1.27;0.80;;;11.50;95.50;;;;;;5061840;28;21104;-90
2021/01/21 08:51:28;;;;;;;1.50;0.60;;;11.60;95.10;;;;;;5061626;28;20675;-89
2021/01/21 08:54:09;;;;;;;0.50;0.40;;;11.60;95.10;;;;;;5062504;28;21025;-88
2021/01/21 08:56:35;;;;;;;1.47;0.67;;;11.60;95.10;;;;;;5061154;28;20640;-89
2021/01/21 08:59:23;;;;;;;0.90;0.60;;;11.60;95.20;;;;;;5065343;28;20852;-89
2021/01/21 09:01:51;;;;;;;0.90;0.50;;;11.70;95.00;;;;;;5065226;28;20585;-89
2021/01/21 09:04:27;;;;;;;0.97;0.70;;;11.60;95.00;;;;;;5065196;28;20657;-89
2021/01/21 09:06:58;;;;;;;0.40;0.40;;;11.60;95.30;;;;;;5068932;28;20790;-89
2021/01/21 09:09:27;;;;;;;0.80;0.60;;;11.60;95.20;;;;;;5067275;28;20644;-89
2021/01/21 09:11:53;;;;;;;1.00;0.40;;;11.80;94.80;;;;;;5068224;28;20613;-91
2021/01/21 09:14:19;;;;;;;1.17;0.60;;;11.90;94.80;;;;;;5070248;28;21182;-88
2021/01/21 09:16:47;;;;;;;0.57;0.40;;;12.00;94.60;;;;;;5067447;28;20994;-89
2021/01/21 09:19:17;;;;;;;1.43;0.77;;;12.30;94.40;;;;;;5068454;28;20632;-90
2021/01/21 09:22:00;;;;;;;1.97;0.63;;;12.50;94.30;;;;;;5048852;28;21080;-90
2021/01/21 09:24:27;;;;;;;0.80;0.70;;;12.70;94.00;;;;;;5067457;28;20639;-90
2021/01/21 09:27:14;;;;;;;0.53;0.43;;;12.90;94.10;;;;;;5066657;28;21081;-91
2021/01/21 09:29:53;;;;;;;2.00;0.70;;;12.90;93.60;;;;;;5064216;28;20678;-91
2021/01/21 09:32:21;;;;;;;2.10;1.30;;;13.10;93.40;;;;;;5046386;28;20633;-91
2021/01/21 09:35:00;;;;;;;1.07;0.97;;;13.40;93.50;;;;;;5065090;28;20624;-89
2021/01/21 09:37:28;;;;;;;1.13;0.77;;;13.50;93.20;;;;;;5067462;28;20985;-89
2021/01/21 09:39:54;;;;;;;2.90;1.63;;;13.60;93.00;;;;;;5065655;28;21130;-89
2021/01/21 09:42:23;;;;;;;1.43;0.73;;;13.60;93.30;;;;;;5062326;28;20632;-92
2021/01/21 09:44:50;;;;;;;0.60;0.50;;;13.60;92.90;;;;;;5068896;28;20793;-91
2021/01/21 09:47:18;;;;;;;1.20;0.50;;;13.10;93.70;;;;;;5066968;28;20710;-93
2021/01/21 09:49:47;;;;;;;0.87;0.60;;;13.00;94.10;;;;;;5067145;28;20645;-93
2021/01/21 09:52:14;;;;;;;1.67;0.80;;;12.90;94.10;;;;;;5068347;28;20637;-93
2021/01/21 09:54:41;;;;;;;0.60;0.50;;;12.70;94.50;;;;;;5065519;28;20626;-93
2021/01/21 09:57:09;;;;;;;1.67;0.87;;;12.80;94.30;;;;;;5067762;28;20647;-91
2021/01/21 09:59:38;;;;;;;0.77;0.70;;;12.70;94.50;;;;;;5070225;28;20656;-93
2021/01/21 10:02:11;;;;;;;0.87;0.60;;;13.10;94.40;;;;;;5070565;28;20625;-95
2021/01/21 10:04:40;;;;;;;0.70;0.50;;;13.30;94.00;;;;;;5079130;28;20643;-96
2021/01/21 10:07:07;;;;;;;0.53;0.40;;;13.60;93.60;;;;;;5072103;28;21064;-94
2021/01/21 10:09:40;;;;;;;0.70;0.70;;;13.80;93.40;;;;;;5080083;28;20637;-94
2021/01/21 10:12:09;;;;;;;0.60;0.50;;;13.90;93.20;;;;;;5061187;28;20617;-94
2021/01/21 10:14:36;;;;;;;0.50;0.30;;;13.90;93.20;;;;;;5086798;28;20601;-94
2021/01/21 10:17:07;;;;;;;0.60;0.60;;;13.90;92.80;;;;;;5090377;28;20640;-94
2021/01/21 10:19:33;;;;;;;0.40;0.30;;;14.00;93.00;;;;;;5090448;28;20691;-93
2021/01/21 10:22:00;;;;;;;0.70;0.50;;;13.60;93.30;;;;;;5093573;28;20628;-93
2021/01/21 10:24:27;;;;;;;0.80;0.40;;;13.50;93.50;;;;;;5094549;28;20832;-93
2021/01/21 10:26:57;;;;;;;0.83;0.57;;;13.30;93.80;;;;;;5088727;28;20653;-94
2021/01/21 10:29:23;;;;;;;1.00;0.40;;;13.20;94.10;;;;;;5089765;28;20641;-89
2021/01/21 10:31:51;;;;;;;1.33;0.70;;;13.10;94.40;;;;;;5090837;28;20836;-91
2021/01/21 10:34:17;;;;;;;0.83;0.80;;;13.20;94.20;;;;;;5091541;28;20580;-89
2021/01/21 10:36:43;;;;;;;0.77;0.60;;;13.50;93.50;;;;;;5093546;28;20639;-90
2021/01/21 10:39:11;;;;;;;0.60;0.50;;;13.90;93.40;;;;;;5091220;28;20648;-89
2021/01/21 10:41:37;;;;;;;2.10;0.50;;;14.00;93.00;;;;;;5089962;28;20633;-90
2021/01/21 10:44:05;;;;;;;0.87;0.70;;;14.40;92.30;;;;;;5073666;28;20632;-89
2021/01/21 10:46:31;;;;;;;0.47;0.40;;;14.40;92.20;;;;;;5087070;28;20657;-89
2021/01/21 10:48:58;;;;;;;0.90;0.47;;;14.20;92.50;;;;;;5084951;28;20644;-89
2021/01/21 10:51:26;;;;;;;0.60;0.60;;;14.10;92.60;;;;;;5070821;28;20660;-89
2021/01/21 10:53:52;;;;;;;1.00;0.50;;;14.40;92.80;;;;;;5086483;28;20624;-89
2021/01/21 10:56:19;;;;;;;0.73;0.73;;;14.40;92.20;;;;;;5087843;28;20605;-90
2021/01/21 10:58:46;;;;;;;0.90;0.90;;;14.20;92.50;;;;;;5081896;28;20637;-90
2021/01/21 11:01:13;;;;;;;1.07;0.70;;;14.30;92.60;;;;;;5083875;28;20706;-89
2021/01/21 11:03:40;;;;;;;2.20;0.40;;;14.40;92.40;;;;;;5082761;28;20662;-91
2021/01/21 11:06:07;;;;;;;1.10;0.80;;;14.60;92.80;;;;;;5079191;28;20712;-89
2021/01/21 11:08:34;;;;;;;0.83;0.70;;;14.90;92.00;;;;;;5080311;28;20630;-90
2021/01/21 11:11:00;;;;;;;0.77;0.50;;;15.60;91.90;;;;;;5083952;28;20746;-90
2021/01/21 11:13:31;;;;;;;1.10;0.47;;;15.40;90.80;;;;;;5086130;28;20623;-89
2021/01/21 11:15:58;;;;;;;0.93;0.90;;;15.60;91.10;;;;;;5085656;28;20635;-90
2021/01/21 11:18:27;;;;;;;1.90;0.80;;;15.20;91.40;;;;;;5087182;28;20869;-89
2021/01/21 11:20:53;;;;;;;2.10;0.77;;;14.90;91.50;;;;;;5087279;28;20629;-90
2021/01/21 11:23:20;;;;;;;1.47;0.70;;;15.00;91.70;;;;;;5088706;28;20598;-89
2021/01/21 11:25:46;;;;;;;0.90;0.60;;;14.70;91.40;;;;;;5086905;28;20637;-89
2021/01/21 11:28:12;;;;;;;1.10;0.70;;;14.30;91.80;;;;;;5082822;28;20690;-89
2021/01/21 11:30:39;;;;;;;0.83;0.83;;;14.20;92.30;;;;;;5084401;28;20950;-90
2021/01/21 11:33:05;;;;;;;0.80;0.80;;;14.30;92.70;;;;;;5079823;28;20597;-89
2021/01/21 11:35:32;;;;;;;1.20;1.10;;;14.10;92.60;;;;;;5073312;28;20632;-90
2021/01/21 11:37:59;;;;;;;1.13;1.03;;;14.00;93.20;;;;;;5065551;28;20635;-88
2021/01/21 11:40:25;;;;;;;1.83;0.90;;;14.00;92.90;;;;;;5067418;28;20661;-90
2021/01/21 11:42:51;;;;;;;0.70;0.70;;;14.00;92.70;;;;;;5064942;28;21408;-88
2021/01/21 11:45:18;;;;;;;2.20;1.00;;;14.00;92.90;;;;;;5067881;28;20582;-90
2021/01/21 11:47:45;;;;;;;1.27;1.10;;;13.90;93.10;;;;;;5047898;28;20667;-90
2021/01/21 11:50:14;;;;;;;2.70;1.00;;;13.90;93.10;;;;;;5065162;28;20734;-89
2021/01/21 11:52:43;;;;;;;1.23;0.93;;;14.00;93.20;;;;;;5066183;28;20620;-89
2021/01/21 11:55:11;;;;;;;0.70;0.70;;;13.90;93.20;;;;;;5066316;28;20608;-90
2021/01/21 11:57:42;;;;;;;1.20;0.80;;;13.90;92.90;;;;;;5066068;28;20643;-89
2021/01/21 12:00:11;;;;;;;1.50;0.60;;;14.00;93.10;;;;;;5068090;28;20714;-89
2021/01/21 12:02:37;;;;;;;2.43;0.73;;;14.00;93.20;;;;;;5068491;28;20651;-88
2021/01/21 12:05:04;;;;;;;1.10;1.00;;;14.00;93.30;;;;;;5062929;28;20628;-92
2021/01/21 12:07:30;;;;;;;1.20;1.10;;;14.00;93.30;;;;;;5050804;28;20671;-89
2021/01/21 12:09:58;;;;;;;0.83;0.83;;;13.90;93.20;;;;;;5063939;28;21088;-89
2021/01/21 12:12:24;;;;;;;1.37;1.10;;;14.00;93.50;;;;;;5062477;28;20605;-91
2021/01/21 12:14:50;;;;;;;1.03;0.90;;;13.90;93.30;;;;;;5069042;28;20675;-90
2021/01/21 12:17:19;;;;;;;0.77;0.77;;;13.90;93.50;;;;;;5069055;28;20619;-90
2021/01/21 12:19:46;;;;;;;1.00;0.80;;;14.00;93.30;;;;;;5062243;28;20661;-90
2021/01/21 12:22:12;;;;;;;0.83;0.80;;;14.10;93.30;;;;;;5067643;28;20637;-90
2021/01/21 12:24:39;;;;;;;1.10;1.00;;;14.00;93.30;;;;;;5064302;28;20645;-90
2021/01/21 12:27:08;;;;;;;1.23;1.13;;;14.00;93.30;;;;;;5065491;28;20987;-90
2021/01/21 12:29:34;;;;;;;1.67;0.90;;;13.90;93.50;;;;;;5061005;28;21053;-90
2021/01/21 12:32:01;;;;;;;0.80;0.80;;;13.90;93.60;;;;;;5044133;28;20629;-91
2021/01/21 12:34:27;;;;;;;0.70;0.70;;;13.90;93.70;;;;;;5066897;28;20996;-91
2021/01/21 12:36:54;;;;;;;0.90;0.73;;;13.90;93.60;;;;;;5064129;28;21001;-89
2021/01/21 12:39:21;;;;;;;2.00;0.73;;;13.90;93.50;;;;;;5070063;28;21244;-90
2021/01/21 12:41:47;;;;;;;1.23;0.97;;;14.00;93.50;;;;;;5064232;28;20728;-92
2021/01/21 12:44:15;;;;;;;0.77;0.77;;;14.00;93.40;;;;;;5064271;28;20948;-90
2021/01/21 12:46:43;;;;;;;2.97;1.03;;;14.10;93.40;;;;;;5065364;28;20653;-90
2021/01/21 12:49:10;;;;;;;2.90;0.80;;;14.20;93.70;;;;;;5066546;28;20643;-90
2021/01/21 12:51:37;;;;;;;0.70;0.70;;;14.40;93.50;;;;;;5063938;28;20621;-90
2021/01/21 12:54:03;;;;;;;0.60;0.60;;;14.40;93.20;;;;;;5062215;28;20967;-91
2021/01/21 12:56:31;;;;;;;1.00;0.90;;;14.30;93.40;;;;;;5065058;28;20641;-90
2021/01/21 12:58:58;;;;;;;1.40;1.00;;;14.40;93.40;;;;;;5064314;28;20641;-90
2021/01/21 13:01:25;;;;;;;2.20;0.90;;;14.40;94.00;;;;;;5064749;28;20664;-91